FW5383 Weather Reports


Display with metric or nautical units.
time (UTC)temp
F
wind
direction
speed
MPH
gust
MPH
rain 1hr
in
rain 24hr
in
rain mn
in
humidity
%
barometer
mb
20200601001101 50 180 13.0 0.0 0.00 0.00 0.26 85 1021.0
20200601000405 50 180 15.0 23.0 0.00 0.00 0.26 86 1020.8
20200531235855 49 180 12.0 25.0 0.00 0.00 0.26 86 1020.9
20200531235343 49 180 16.0 25.0 0.00 0.00 0.26 88 1020.9
20200531234836 49 180 11.0 22.0 0.00 0.00 0.26 89 1021.0
20200531234329 49 180 14.0 24.0 0.00 0.00 0.26 88 1020.8
20200531233812 49 180 17.0 24.0 0.00 0.00 0.26 88 1020.7
20200531233308 49 180 16.0 23.0 0.00 0.00 0.26 90 1020.9
20200531232329 49 180 11.0 26.0 0.01 0.01 0.26 90 1020.7
20200531231310 50 180 12.0 21.0 0.00 0.00 0.25 85 1020.5
20200531230758 50 180 9.0 21.0 0.00 0.00 0.25 84 1020.4
20200531230251 50 180 10.0 22.0 0.00 0.00 0.25 82 1020.5
20200531225738 50 180 15.0 24.0 0.00 0.00 0.25 82 1020.3
20200531225228 50 180 14.0 24.0 0.00 0.00 0.25 83 1020.3
20200531224717 51 180 13.0 28.0 0.00 0.00 0.25 83 1020.2
20200531224208 51 180 15.0 28.0 0.00 0.00 0.25 83 1020.1
20200531223701 51 180 13.0 20.0 0.00 0.00 0.25 82 1020.0
20200531223152 51 180 14.0 18.0 0.00 0.00 0.25 80 1019.9
20200531221628 51 180 11.0 19.0 0.00 0.00 0.25 80 1020.0
20200531221122 51 180 11.0 19.0 0.00 0.00 0.25 80 1019.6
20200531220610 51 180 9.0 21.0 0.00 0.00 0.25 78 1019.9
20200531220100 51 180 10.0 21.0 0.00 0.00 0.25 80 1019.8
20200531215552 51 180 9.0 12.0 0.00 0.00 0.25 82 1019.8
20200531214601 50 180 11.0 23.0 0.00 0.00 0.25 85 1019.6
20200531214053 50 180 10.0 24.0 0.00 0.00 0.25 87 1019.6
20200531213539 50 180 15.0 24.0 0.00 0.00 0.25 86 1019.7
20200531213030 50 180 15.0 22.0 0.00 0.00 0.25 84 1019.6
20200531212519 50 180 15.0 26.0 0.00 0.00 0.25 87 1019.6
20200531212011 50 180 15.0 29.0 0.00 0.00 0.25 87 1019.5
20200531211505 50 180 18.0 29.0 0.00 0.00 0.25 86 1019.7
20200531064208 51 180 31.0 44.0 0.02 0.02 0.08 95 1005.0
20200531063657 51 180 26.0 44.0 0.01 0.01 0.07 95 1004.9
20200531063147 51 225 26.0 46.0 0.01 0.01 0.07 95 1004.8
20200531062637 51 180 25.0 46.0 0.01 0.01 0.07 96 1004.6
20200531062126 51 180 27.0 39.0 0.01 0.01 0.07 96 1004.4
20200531061620 51 225 23.0 38.0 0.00 0.00 0.06 96 1004.4
20200531061046 51 225 25.0 39.0 0.01 0.01 0.06 96 1004.1
20200531060536 51 225 23.0 0.0 0.00 0.00 0.02 96 1004.0
20200531060300 51 225 23.0 0.0 0.00 0.00 0.02 96 1004.0
20200531055750 51 180 21.0 36.0 0.02 0.04 0.02 95 1003.6
20200531055239 51 225 19.0 36.0 0.02 0.04 0.02 95 1003.5
20200531054728 52 225 17.0 40.0 0.01 0.02 0.01 95 1003.3
20200531054217 52 180 23.0 40.0 0.01 0.02 0.01 95 1003.3
20200531053709 52 270 15.0 39.0 0.01 0.02 0.01 95 1003.1
20200531053200 53 180 16.0 35.0 0.01 0.02 0.01 95 1003.1
20200531052647 53 225 14.0 30.0 0.01 0.02 0.01 94 1002.4
20200531052137 54 225 17.0 28.0 0.01 0.02 0.01 94 1002.3
20200531051628 53 225 16.0 27.0 0.00 0.01 0.01 94 1002.2
20200531051116 53 270 9.0 18.0 0.00 0.01 0.00 94 1002.0
20200531050608 52 225 5.0 17.0 0.00 0.01 0.00 94 1002.2
20200531050058 53 270 10.0 17.0 0.00 0.01 0.00 95 1002.0
20200531045548 53 180 8.0 11.0 0.00 0.01 0.00 96 1002.1
20200531045036 52 225 4.0 11.0 0.00 0.01 0.00 96 1002.1
20200531044526 52 225 7.0 11.0 0.00 0.01 0.00 97 1001.9